Time;durP1;ratioP1;P1;durP2;ratioP2;P2;SDS_P1;SDS_P2;PMS_P1;PMS_P2;Temp;Humidity;BMP_temperature;BMP_pressure;BME280_temperature;BME280_humidity;BME280_pressure;Samples;Min_cycle;Max_cycle;Signal;HPM_P1;HPM_P2
2023/12/29 00:00:43;;;;;;;2.70;1.65;;;;;;;6.92;89.85;100512.56;7395110;19;20014;-70
2023/12/29 00:03:12;;;;;;;3.38;1.45;;;;;;;6.93;89.15;100519.50;7396034;19;20074;-70
2023/12/29 00:05:40;;;;;;;4.38;1.50;;;;;;;6.93;89.27;100520.34;7394745;19;20031;-69
2023/12/29 00:08:11;;;;;;;2.47;1.30;;;;;;;6.91;89.43;100509.06;7394320;19;20498;-72
2023/12/29 00:10:40;;;;;;;2.75;1.23;;;;;;;6.94;89.96;100511.66;7396082;19;20010;-68
2023/12/29 00:13:08;;;;;;;3.63;1.58;;;;;;;6.94;89.74;100501.22;7396071;19;20035;-70
2023/12/29 00:15:38;;;;;;;1.73;1.20;;;;;;;6.95;90.48;100499.47;7396134;19;20043;-69
2023/12/29 00:18:06;;;;;;;5.43;1.73;;;;;;;6.96;89.99;100495.97;7396049;19;20070;-70
2023/12/29 00:20:36;;;;;;;6.88;2.20;;;;;;;6.98;88.84;100491.63;7394721;19;20018;-70
2023/12/29 00:23:05;;;;;;;2.15;1.20;;;;;;;7.00;89.99;100487.22;7396473;19;20033;-70
2023/12/29 00:25:38;;;;;;;2.58;1.70;;;;;;;7.01;88.44;100479.41;7393824;19;20540;-70
2023/12/29 00:28:13;;;;;;;2.72;1.40;;;;;;;7.04;89.66;100480.25;7395620;19;20010;-70
2023/12/29 00:30:43;;;;;;;3.42;1.55;;;;;;;7.06;89.76;100481.09;7393947;19;20595;-70
2023/12/29 00:33:11;;;;;;;2.33;2.05;;;;;;;7.01;89.18;100473.31;7394862;19;20017;-71
2023/12/29 00:35:40;;;;;;;1.67;1.38;;;;;;;7.06;89.22;100478.50;7395627;19;20020;-70
2023/12/29 00:38:09;;;;;;;2.67;1.55;;;;;;;7.01;87.77;100470.72;7395260;19;20364;-70
2023/12/29 00:40:40;;;;;;;2.28;1.65;;;;;;;7.05;86.31;100472.44;7394216;19;20018;-70
2023/12/29 00:43:08;;;;;;;3.17;1.65;;;;;;;7.06;87.50;100468.06;7395458;19;20028;-70
2023/12/29 00:45:37;;;;;;;1.75;1.33;;;;;;;7.08;87.87;100476.75;7393549;19;20022;-70
2023/12/29 00:48:06;;;;;;;3.20;1.70;;;;;;;7.07;88.93;100468.03;7395280;19;20037;-70
2023/12/29 00:50:34;;;;;;;4.10;1.60;;;;;;;7.09;88.42;100462.78;7395250;19;20501;-70
2023/12/29 00:53:03;;;;;;;3.35;1.70;;;;;;;7.10;87.01;100464.53;7394697;19;20019;-70
2023/12/29 00:55:31;;;;;;;2.08;1.45;;;;;;;7.09;88.15;100445.41;7394707;19;20434;-70
2023/12/29 00:58:02;;;;;;;2.72;1.60;;;;;;;7.11;87.30;100450.59;7395074;19;20031;-70
2023/12/29 01:00:31;;;;;;;4.13;2.30;;;;;;;7.12;87.53;100452.34;7393578;19;20007;-70
2023/12/29 01:02:59;;;;;;;2.58;1.60;;;;;;;7.15;87.38;100449.69;7396697;19;20015;-70
2023/12/29 01:05:27;;;;;;;3.47;1.80;;;;;;;7.16;87.04;100449.66;7394544;19;20014;-70
2023/12/29 01:07:57;;;;;;;4.80;1.60;;;;;;;7.18;87.74;100452.25;7394857;19;20035;-70
2023/12/29 01:10:25;;;;;;;1.98;1.60;;;;;;;7.21;85.92;100444.38;7394231;19;20503;-69
2023/12/29 01:12:54;;;;;;;4.13;1.60;;;;;;;7.21;87.82;100447.00;7394279;19;20011;-69
2023/12/29 01:15:25;;;;;;;3.22;1.50;;;;;;;7.22;86.84;100443.50;7394479;19;20018;-68
2023/12/29 01:17:53;;;;;;;3.42;1.67;;;;;;;7.24;86.63;100448.69;7394890;19;20025;-68
2023/12/29 01:20:22;;;;;;;3.30;1.77;;;;;;;7.25;87.84;100447.81;7392996;19;20027;-69
2023/12/29 01:22:50;;;;;;;3.45;1.58;;;;;;;7.27;88.00;100446.91;7394186;19;20033;-70
2023/12/29 01:25:26;;;;;;;2.65;1.50;;;;;;;7.28;88.03;100450.38;7393955;19;20081;-70
2023/12/29 01:27:54;;;;;;;2.20;1.60;;;;;;;7.29;88.08;100442.56;7394432;19;20018;-70
2023/12/29 01:30:25;;;;;;;5.32;1.75;;;;;;;7.32;87.63;100446.88;7391573;19;20011;-70
2023/12/29 01:32:54;;;;;;;4.20;2.05;;;;;;;7.33;87.15;100436.41;7394306;19;20011;-70
2023/12/29 01:35:22;;;;;;;2.33;1.60;;;;;;;7.33;86.85;100428.56;7394002;19;20022;-70
2023/12/29 01:37:51;;;;;;;3.03;1.60;;;;;;;7.32;86.56;100429.44;7399783;19;20022;-69
2023/12/29 01:40:19;;;;;;;3.15;1.50;;;;;;;7.30;86.24;100422.53;7399732;19;20070;-70
2023/12/29 01:42:48;;;;;;;2.22;1.52;;;;;;;7.29;87.15;100419.06;7400621;19;20015;-71
2023/12/29 01:45:26;;;;;;;3.30;1.60;;;;;;;7.26;86.06;100419.09;7401155;19;20027;-70
2023/12/29 01:47:55;;;;;;;3.00;1.40;;;;;;;7.24;88.27;100418.25;7400801;19;20011;-70
2023/12/29 01:50:25;;;;;;;2.67;1.42;;;;;;;7.21;87.35;100418.28;7401037;19;20014;-71
2023/12/29 01:52:56;;;;;;;2.53;1.50;;;;;;;7.18;87.12;100410.50;7400151;19;20544;-69
2023/12/29 01:55:27;;;;;;;1.98;1.60;;;;;;;7.16;88.02;100402.69;7400525;19;20481;-69
2023/12/29 01:57:56;;;;;;;3.50;1.63;;;;;;;7.14;87.61;100404.47;7398581;19;20031;-69
2023/12/29 02:00:29;;;;;;;2.63;1.63;;;;;;;7.11;87.44;100414.06;7399113;19;20018;-69
2023/12/29 02:02:57;;;;;;;1.63;1.45;;;;;;;7.12;87.56;100415.81;7400252;19;20021;-69
2023/12/29 02:05:29;;;;;;;1.67;1.40;;;;;;;7.10;88.23;100410.63;7400112;19;20493;-69
2023/12/29 02:07:57;;;;;;;2.92;1.58;;;;;;;7.07;87.61;100392.38;7400929;19;20086;-69
2023/12/29 02:10:26;;;;;;;1.50;1.30;;;;;;;7.07;88.23;100394.13;7399888;19;20501;-69
2023/12/29 02:12:59;;;;;;;1.65;1.35;;;;;;;7.04;86.16;100391.56;7399530;19;20540;-69
2023/12/29 02:15:30;;;;;;;2.28;1.50;;;;;;;7.03;88.42;100395.03;7399860;19;20485;-69
2023/12/29 02:18:04;;;;;;;2.20;1.67;;;;;;;7.01;87.41;100382.03;7399728;19;20023;-69
2023/12/29 02:20:32;;;;;;;5.13;1.83;;;;;;;7.00;88.02;100380.28;7399443;19;20014;-69
2023/12/29 02:23:01;;;;;;;2.83;1.63;;;;;;;6.92;88.59;100367.34;7399557;19;20032;-70
2023/12/29 02:25:32;;;;;;;5.10;1.67;;;;;;;6.95;88.92;100354.28;7397473;19;20014;-69
2023/12/29 02:28:07;;;;;;;2.22;1.63;;;;;;;6.91;88.23;100354.34;7397472;19;20011;-69
2023/12/29 02:30:39;;;;;;;4.60;1.95;;;;;;;6.91;88.75;100354.34;7398116;19;20371;-69
2023/12/29 02:33:12;;;;;;;1.50;1.30;;;;;;;6.88;89.15;100350.03;7398764;19;20540;-69
2023/12/29 02:35:43;;;;;;;2.70;1.30;;;;;;;6.85;89.48;100344.88;7399996;19;20035;-69
2023/12/29 02:38:12;;;;;;;2.92;1.70;;;;;;;6.81;89.38;100336.22;7399788;19;20031;-69
2023/12/29 02:40:44;;;;;;;4.93;1.85;;;;;;;6.76;89.30;100337.13;7396958;19;20034;-69
2023/12/29 02:43:12;;;;;;;2.83;1.42;;;;;;;6.73;89.28;100326.75;7397321;19;20015;-69
2023/12/29 02:45:41;;;;;;;2.47;1.50;;;;;;;6.68;89.54;100330.28;7399187;19;20019;-69
2023/12/29 02:48:10;;;;;;;4.70;1.70;;;;;;;6.64;89.50;100323.38;7397796;19;20027;-69
2023/12/29 02:50:38;;;;;;;2.60;1.40;;;;;;;6.61;89.08;100319.94;7399021;19;20043;-69
2023/12/29 02:53:07;;;;;;;5.78;1.70;;;;;;;6.57;89.12;100326.94;7398038;19;20014;-69
2023/12/29 02:55:35;;;;;;;2.63;1.40;;;;;;;6.54;89.47;100308.72;7398754;19;20018;-69
2023/12/29 02:58:06;;;;;;;1.85;1.42;;;;;;;6.54;90.26;100313.94;7398835;19;20014;-69
2023/12/29 03:00:35;;;;;;;2.85;2.00;;;;;;;6.54;90.75;100321.75;7398272;19;20010;-69
2023/12/29 03:03:03;;;;;;;1.92;1.73;;;;;;;6.51;89.26;100319.22;7398085;19;20074;-69
2023/12/29 03:05:32;;;;;;;2.70;1.60;;;;;;;6.50;90.32;100314.88;7398429;19;20031;-69
2023/12/29 03:08:00;;;;;;;3.00;1.58;;;;;;;6.49;90.09;100311.38;7398079;19;20015;-69
2023/12/29 03:10:28;;;;;;;4.05;1.80;;;;;;;6.46;89.90;100300.16;7398281;19;20078;-69
2023/12/29 03:12:57;;;;;;;1.77;1.52;;;;;;;6.51;89.39;100309.63;7397950;19;20066;-70
2023/12/29 03:15:28;;;;;;;3.75;1.42;;;;;;;6.52;89.53;100294.84;7397724;19;20376;-69
2023/12/29 03:17:57;;;;;;;2.15;1.40;;;;;;;6.55;90.82;100292.22;7397644;19;20031;-69
2023/12/29 03:20:25;;;;;;;1.58;1.48;;;;;;;6.58;89.71;100294.78;7402299;19;20011;-69
2023/12/29 03:22:55;;;;;;;1.38;1.20;;;;;;;6.62;89.67;100290.38;7397409;19;20480;-70
2023/12/29 03:25:23;;;;;;;3.33;1.63;;;;;;;6.65;89.16;100286.00;7395934;19;20014;-69
2023/12/29 03:27:52;;;;;;;1.75;1.20;;;;;;;6.69;89.75;100286.81;7397860;19;20010;-70
2023/12/29 03:30:20;;;;;;;2.03;1.42;;;;;;;6.72;89.23;100285.91;7395146;19;20018;-69
2023/12/29 03:32:51;;;;;;;2.65;1.35;;;;;;;6.76;88.00;100280.66;7395725;19;20031;-69
2023/12/29 03:35:20;;;;;;;2.60;1.20;;;;;;;6.80;87.09;100281.47;7397072;19;20018;-69
2023/12/29 03:37:48;;;;;;;1.35;1.00;;;;;;;6.83;88.04;100286.63;7397212;19;20031;-69
2023/12/29 03:40:17;;;;;;;1.83;1.20;;;;;;;6.88;87.34;100287.44;7396586;19;20377;-69
2023/12/29 03:42:46;;;;;;;2.25;1.73;;;;;;;6.94;88.60;100286.50;7397099;19;20010;-69
2023/12/29 03:45:14;;;;;;;2.80;1.27;;;;;;;6.97;89.12;100281.22;7396972;19;20027;-69
2023/12/29 03:47:42;;;;;;;4.07;1.15;;;;;;;6.99;87.68;100285.53;7396610;19;20423;-69
2023/12/29 03:50:14;;;;;;;1.92;1.05;;;;;;;7.00;87.28;100287.28;7396952;19;20018;-69
2023/12/29 03:52:42;;;;;;;2.08;1.55;;;;;;;7.04;88.75;100276.78;7395567;19;20022;-69
2023/12/29 03:55:11;;;;;;;1.42;1.13;;;;;;;7.06;87.42;100277.63;7396787;19;20031;-69
2023/12/29 03:57:39;;;;;;;1.60;1.05;;;;;;;7.09;88.26;100278.44;7394968;19;20082;-69
2023/12/29 04:00:09;;;;;;;3.38;1.23;;;;;;;7.10;88.29;100264.53;7392115;19;20014;-69
2023/12/29 04:02:38;;;;;;;1.88;1.40;;;;;;;7.12;88.58;100269.72;7394850;19;20015;-69
2023/12/29 04:05:08;;;;;;;2.22;1.10;;;;;;;7.13;88.86;100269.69;7396421;19;20358;-70
2023/12/29 04:07:42;;;;;;;2.17;1.05;;;;;;;7.14;86.72;100278.38;7396649;19;20070;-69
2023/12/29 04:10:11;;;;;;;1.05;0.93;;;;;;;7.16;88.20;100276.59;7396815;19;20033;-69
2023/12/29 04:12:40;;;;;;;2.53;1.38;;;;;;;7.16;88.44;100284.44;7396105;19;20027;-69
2023/12/29 04:15:09;;;;;;;2.20;1.10;;;;;;;7.15;87.86;100275.75;7396134;19;20006;-69
2023/12/29 04:17:38;;;;;;;1.35;1.10;;;;;;;7.17;88.47;100273.13;7394483;19;20023;-69
2023/12/29 04:20:08;;;;;;;1.98;0.90;;;;;;;7.19;87.83;100268.75;7396097;19;20078;-69
2023/12/29 04:22:39;;;;;;;2.20;1.00;;;;;;;7.19;87.30;100250.47;7394378;19;20011;-69
2023/12/29 04:25:08;;;;;;;0.95;0.73;;;;;;;7.21;87.21;100258.28;7396386;19;20066;-69
2023/12/29 04:27:37;;;;;;;2.05;0.90;;;;;;;7.23;88.66;100261.72;7395575;19;20010;-69
2023/12/29 04:30:07;;;;;;;3.08;1.00;;;;;;;7.23;88.46;100259.97;7394449;19;20353;-69
2023/12/29 04:32:35;;;;;;;1.83;1.00;;;;;;;7.22;87.88;100263.47;7395223;19;20497;-69
2023/12/29 04:35:04;;;;;;;1.70;0.98;;;;;;;7.24;88.14;100266.03;7393901;19;20088;-70
2023/12/29 04:37:32;;;;;;;1.77;1.05;;;;;;;7.22;86.29;100255.63;7395720;19;20010;-70
2023/12/29 04:40:04;;;;;;;0.80;0.80;;;;;;;7.23;86.85;100246.06;7395157;19;20019;-70
2023/12/29 04:42:33;;;;;;;1.55;1.10;;;;;;;7.24;86.67;100256.50;7394235;19;20060;-71
2023/12/29 04:45:01;;;;;;;1.20;1.08;;;;;;;7.24;87.31;100259.09;7393527;19;20014;-70
2023/12/29 04:47:30;;;;;;;1.50;0.82;;;;;;;7.26;87.41;100246.88;7395387;19;20070;-69
2023/12/29 04:49:58;;;;;;;1.48;0.90;;;;;;;7.25;86.57;100250.34;7395289;19;20437;-70
2023/12/29 04:52:27;;;;;;;1.55;0.70;;;;;;;7.26;85.84;100244.25;7395283;19;20077;-70
2023/12/29 04:54:55;;;;;;;1.00;0.90;;;;;;;7.27;86.74;100243.38;7393319;19;20078;-70
2023/12/29 04:57:26;;;;;;;2.45;1.13;;;;;;;7.28;85.05;100229.44;7394631;19;20476;-70
2023/12/29 04:59:55;;;;;;;2.83;1.10;;;;;;;7.29;84.67;100232.91;7393351;19;20015;-70
2023/12/29 05:02:23;;;;;;;1.48;1.20;;;;;;;7.31;86.58;100233.75;7392475;19;20488;-70
2023/12/29 05:04:52;;;;;;;0.85;0.80;;;;;;;7.31;85.25;100229.38;7392850;19;20062;-70
2023/12/29 05:07:20;;;;;;;2.30;0.80;;;;;;;7.31;85.98;100232.00;7394650;19;20442;-70
2023/12/29 05:09:48;;;;;;;2.15;1.08;;;;;;;7.33;85.76;100232.84;7394706;19;20027;-69
2023/12/29 05:12:18;;;;;;;1.55;1.00;;;;;;;7.34;85.44;100228.47;7398648;19;20018;-70
2023/12/29 05:14:49;;;;;;;1.58;0.98;;;;;;;7.35;84.48;100235.41;7399040;19;20477;-69
2023/12/29 05:17:17;;;;;;;1.75;0.88;;;;;;;7.38;86.01;100237.13;7401759;19;20029;-70
2023/12/29 05:19:46;;;;;;;1.63;1.10;;;;;;;7.39;86.37;100225.78;7401293;19;20015;-70
2023/12/29 05:22:17;;;;;;;2.15;0.98;;;;;;;7.41;85.16;100229.25;7399839;19;20031;-70
2023/12/29 05:24:53;;;;;;;1.48;0.82;;;;;;;7.42;83.31;100217.91;7399377;19;20015;-70
2023/12/29 05:27:21;;;;;;;1.70;1.17;;;;;;;7.46;83.94;100214.38;7401283;19;20006;-70
2023/12/29 05:29:52;;;;;;;4.30;1.33;;;;;;;7.50;83.57;100221.25;7400251;19;20078;-70
2023/12/29 05:32:21;;;;;;;1.40;0.73;;;;;;;7.54;85.26;100225.53;7399160;19;20126;-69
2023/12/29 05:34:49;;;;;;;1.45;0.70;;;;;;;7.56;83.57;100221.16;7398805;19;20010;-69
2023/12/29 05:37:18;;;;;;;2.03;0.80;;;;;;;7.60;84.32;100207.16;7401057;19;20541;-70
2023/12/29 05:39:46;;;;;;;1.95;0.77;;;;;;;7.64;82.90;100216.63;7405446;19;20499;-70
2023/12/29 05:42:15;;;;;;;1.08;0.95;;;;;;;7.70;85.10;100220.06;7399778;19;20024;-70
2023/12/29 05:44:43;;;;;;;1.55;1.10;;;;;;;7.74;83.56;100221.72;7398798;19;20019;-69
2023/12/29 05:47:15;;;;;;;2.75;0.90;;;;;;;7.76;82.39;100223.41;7398045;19;20010;-70
2023/12/29 05:49:43;;;;;;;2.50;0.93;;;;;;;7.80;85.12;100221.59;7401184;19;20010;-70
2023/12/29 05:52:12;;;;;;;1.40;1.00;;;;;;;7.82;84.40;100199.78;7400661;19;20029;-70
2023/12/29 05:54:41;;;;;;;3.92;1.00;;;;;;;7.86;83.35;100213.66;7398180;19;20368;-70
2023/12/29 05:57:09;;;;;;;2.85;1.13;;;;;;;7.88;83.90;100193.56;7400429;19;20011;-70
2023/12/29 05:59:38;;;;;;;2.63;1.20;;;;;;;7.92;82.78;100200.47;7400512;19;20010;-70
2023/12/29 06:02:06;;;;;;;1.50;0.95;;;;;;;7.96;83.48;100206.47;7397405;19;20481;-70
2023/12/29 06:04:37;;;;;;;1.63;0.80;;;;;;;7.98;82.38;100196.88;7398584;19;20031;-70
2023/12/29 06:07:06;;;;;;;2.65;1.38;;;;;;;8.01;81.73;100203.78;7400242;19;20037;-70
2023/12/29 06:09:35;;;;;;;4.07;1.20;;;;;;;8.04;81.28;100195.88;7400510;19;20007;-70
2023/12/29 06:12:03;;;;;;;2.45;1.13;;;;;;;8.09;82.18;100200.13;7399902;19;20014;-70
2023/12/29 06:14:32;;;;;;;1.70;0.98;;;;;;;8.12;80.34;100196.59;7397699;19;20497;-69
2023/12/29 06:17:01;;;;;;;2.72;1.10;;;;;;;8.18;79.29;100185.16;7399422;19;20024;-69
2023/12/29 06:19:32;;;;;;;2.67;1.27;;;;;;;8.23;82.63;100197.22;7399261;19;20485;-69
2023/12/29 06:22:03;;;;;;;1.92;1.10;;;;;;;8.26;79.99;100188.47;7398824;19;20373;-69
2023/12/29 06:24:32;;;;;;;2.78;1.23;;;;;;;8.30;81.32;100198.84;7394581;19;20362;-69
2023/12/29 06:27:06;;;;;;;1.45;1.15;;;;;;;8.34;81.56;100188.28;7399759;19;20013;-69
2023/12/29 06:29:35;;;;;;;1.50;1.08;;;;;;;8.37;81.62;100196.94;7398128;19;20018;-69
2023/12/29 06:32:04;;;;;;;3.95;1.20;;;;;;;8.41;79.46;100187.28;7399608;19;20031;-69
2023/12/29 06:34:32;;;;;;;3.05;1.08;;;;;;;8.43;79.63;100185.50;7396554;19;20011;-69
2023/12/29 06:37:04;;;;;;;2.28;1.27;;;;;;;8.48;80.57;100186.28;7399075;19;20019;-69
2023/12/29 06:39:32;;;;;;;1.48;1.10;;;;;;;8.49;79.96;100177.53;7398924;19;20033;-69
2023/12/29 06:42:01;;;;;;;4.20;1.33;;;;;;;8.49;79.20;100174.91;7396682;19;20027;-69
2023/12/29 06:44:29;;;;;;;1.23;0.98;;;;;;;8.49;80.03;100174.91;7397161;19;20014;-69
2023/12/29 06:46:58;;;;;;;2.55;1.20;;;;;;;8.48;81.02;100175.84;7398437;19;20014;-69
2023/12/29 06:49:26;;;;;;;2.63;1.30;;;;;;;8.44;80.11;100188.06;7398642;19;20010;-69
2023/12/29 06:51:55;;;;;;;1.65;0.90;;;;;;;8.44;80.30;100198.53;7398743;19;20033;-69
2023/12/29 06:54:26;;;;;;;1.55;0.90;;;;;;;8.42;79.29;100216.00;7397221;19;20014;-69
2023/12/29 06:56:55;;;;;;;2.92;1.27;;;;;;;8.42;81.46;100218.59;7399198;19;20010;-69
2023/12/29 06:59:25;;;;;;;2.28;1.00;;;;;;;8.40;81.52;100219.53;7398648;19;20039;-69
2023/12/29 07:01:54;;;;;;;2.50;1.17;;;;;;;8.39;80.75;100208.22;7396836;19;20014;-69
2023/12/29 07:04:22;;;;;;;2.60;1.10;;;;;;;8.37;81.75;100204.78;7396409;19;20477;-69
2023/12/29 07:06:51;;;;;;;3.45;1.17;;;;;;;8.36;81.65;100210.03;7398706;19;20018;-69
2023/12/29 07:09:19;;;;;;;3.30;1.50;;;;;;;8.36;81.48;100215.28;7398316;19;20010;-69
2023/12/29 07:11:52;;;;;;;2.75;1.20;;;;;;;8.36;79.33;100220.50;7398223;19;20026;-69
2023/12/29 07:14:21;;;;;;;2.47;1.20;;;;;;;8.36;80.94;100229.19;7396142;19;20096;-69
2023/12/29 07:16:49;;;;;;;3.10;1.20;;;;;;;8.38;81.81;100229.16;7398053;19;20481;-69
2023/12/29 07:19:18;;;;;;;5.38;1.50;;;;;;;8.37;81.21;100225.69;7397401;19;20015;-69
2023/12/29 07:21:47;;;;;;;2.15;0.93;;;;;;;8.37;81.92;100210.00;7395652;19;20019;-69
2023/12/29 07:24:15;;;;;;;3.22;1.10;;;;;;;8.38;81.66;100213.47;7395992;19;20376;-69
2023/12/29 07:26:44;;;;;;;1.27;1.17;;;;;;;8.39;80.60;100212.59;7397437;19;20033;-69
2023/12/29 07:29:15;;;;;;;3.40;0.90;;;;;;;8.40;80.49;100216.94;7398864;19;20007;-69
2023/12/29 07:31:43;;;;;;;3.05;1.25;;;;;;;8.41;81.77;100213.41;7396232;19;20011;-69
2023/12/29 07:34:12;;;;;;;2.55;1.05;;;;;;;8.43;81.67;100209.88;7395605;19;20034;-69
2023/12/29 07:36:47;;;;;;;1.95;1.30;;;;;;;8.43;81.06;100219.50;7396996;19;20359;-69
2023/12/29 07:39:16;;;;;;;3.35;1.33;;;;;;;8.45;80.23;100209.84;7397554;19;20011;-69
2023/12/29 07:41:45;;;;;;;1.40;1.10;;;;;;;8.46;81.13;100233.38;7396514;19;20027;-69
2023/12/29 07:44:16;;;;;;;1.48;1.05;;;;;;;8.48;78.33;100222.91;7395705;19;20337;-69
2023/12/29 07:46:46;;;;;;;4.18;1.85;;;;;;;8.51;80.54;100248.13;7394832;19;20011;-69
2023/12/29 07:49:15;;;;;;;2.78;1.30;;;;;;;8.52;80.38;100236.72;7396959;19;20015;-69
2023/12/29 07:51:44;;;;;;;3.22;1.50;;;;;;;8.52;79.91;100235.00;7396501;19;20481;-69
2023/12/29 07:54:12;;;;;;;2.17;1.30;;;;;;;8.52;80.28;100227.16;7395113;19;20014;-70
2023/12/29 07:56:41;;;;;;;3.45;1.33;;;;;;;8.50;80.12;100234.16;7397303;19;20010;-70
2023/12/29 07:59:09;;;;;;;2.20;1.40;;;;;;;8.50;81.58;100241.16;7396452;19;20540;-70
2023/12/29 08:01:40;;;;;;;9.43;1.50;;;;;;;8.51;80.07;100241.13;7395828;19;20023;-70
2023/12/29 08:04:09;;;;;;;1.50;1.17;;;;;;;8.49;81.40;100250.75;7394947;19;20480;-70
2023/12/29 08:06:40;;;;;;;3.25;1.65;;;;;;;8.48;81.16;100256.88;7394496;19;20480;-70
2023/12/29 08:09:09;;;;;;;4.07;1.70;;;;;;;8.46;80.18;100248.19;7395743;19;20506;-69
2023/12/29 08:11:38;;;;;;;5.00;1.80;;;;;;;8.44;80.37;100248.22;7396272;19;20011;-69
2023/12/29 08:14:08;;;;;;;3.40;1.42;;;;;;;8.41;79.78;100261.31;7394911;19;20022;-69
2023/12/29 08:16:40;;;;;;;4.05;1.48;;;;;;;8.35;80.54;100263.22;7396360;19;20016;-69
2023/12/29 08:19:10;;;;;;;2.60;1.50;;;;;;;8.34;81.60;100264.09;7396162;19;20017;-69
2023/12/29 08:21:38;;;;;;;3.88;1.40;;;;;;;8.26;81.25;100257.25;7396036;19;20025;-69
2023/12/29 08:24:07;;;;;;;2.20;1.33;;;;;;;8.24;81.98;100250.34;7394292;19;20018;-69
2023/12/29 08:26:36;;;;;;;3.63;1.55;;;;;;;8.19;82.20;100250.47;7395685;19;20067;-69
2023/12/29 08:29:04;;;;;;;5.05;1.80;;;;;;;8.15;81.82;100267.06;7395481;19;20070;-69
2023/12/29 08:31:33;;;;;;;4.20;1.50;;;;;;;8.12;81.48;100261.91;7393685;19;20537;-69
2023/12/29 08:34:04;;;;;;;1.95;1.20;;;;;;;8.10;81.99;100268.91;7394075;19;20082;-68
2023/12/29 08:36:32;;;;;;;3.63;1.30;;;;;;;8.09;81.75;100269.81;7395400;19;20079;-68
2023/12/29 08:39:01;;;;;;;3.58;1.30;;;;;;;8.08;81.29;100262.88;7395196;19;20014;-68
2023/12/29 08:41:29;;;;;;;4.00;1.67;;;;;;;8.10;82.21;100258.47;7393165;19;20374;-69
2023/12/29 08:43:58;;;;;;;2.67;1.30;;;;;;;8.09;81.64;100267.22;7393374;19;20015;-69
2023/12/29 08:46:26;;;;;;;3.50;1.40;;;;;;;8.14;82.18;100262.75;7393423;19;20014;-69
2023/12/29 08:48:55;;;;;;;2.70;1.20;;;;;;;8.16;81.50;100279.25;7395053;19;20086;-68
2023/12/29 08:51:27;;;;;;;3.97;1.55;;;;;;;8.21;82.54;100269.56;7395056;19;20014;-69
2023/12/29 08:53:55;;;;;;;5.20;1.50;;;;;;;8.23;82.13;100269.56;7393758;19;20011;-69
2023/12/29 08:56:24;;;;;;;2.08;1.10;;;;;;;8.25;82.86;100281.69;7394937;19;20049;-69
2023/12/29 08:58:52;;;;;;;1.88;1.00;;;;;;;8.27;82.60;100271.22;7394902;19;20031;-69
2023/12/29 09:01:27;;;;;;;2.95;1.05;;;;;;;8.29;81.37;100275.50;7394075;19;20082;-69
2023/12/29 09:03:55;;;;;;;4.75;1.63;;;;;;;8.31;82.47;100268.50;7392168;19;20426;-69
2023/12/29 09:06:26;;;;;;;4.10;1.20;;;;;;;8.34;83.03;100264.09;7394269;19;20090;-69
2023/12/29 09:08:55;;;;;;;2.47;1.33;;;;;;;8.35;82.50;100261.44;7394675;19;20024;-69
2023/12/29 09:11:23;;;;;;;3.15;1.23;;;;;;;8.36;81.03;100262.31;7394081;19;20363;-69
2023/12/29 09:13:52;;;;;;;5.05;1.42;;;;;;;8.37;81.84;100259.69;7393171;19;20078;-70
2023/12/29 09:16:21;;;;;;;5.07;1.45;;;;;;;8.38;82.45;100260.53;7394423;19;20027;-69
2023/12/29 09:18:49;;;;;;;2.00;0.90;;;;;;;8.40;81.93;100250.91;7394117;19;20018;-69
2023/12/29 09:21:18;;;;;;;2.90;1.35;;;;;;;8.42;82.14;100257.81;7394313;19;20417;-69
2023/12/29 09:23:50;;;;;;;2.97;1.20;;;;;;;8.44;82.42;100265.63;7392562;19;20036;-68
2023/12/29 09:26:18;;;;;;;4.72;1.83;;;;;;;8.47;82.65;100273.47;7393634;19;20083;-69
2023/12/29 09:28:47;;;;;;;3.05;1.48;;;;;;;8.48;82.49;100254.28;7393452;19;20024;-69
2023/12/29 09:31:15;;;;;;;3.25;1.77;;;;;;;8.51;82.60;100277.72;7391650;19;20078;-69
2023/12/29 09:33:50;;;;;;;3.20;1.10;;;;;;;8.54;81.22;100269.81;7392508;19;20363;-70
2023/12/29 09:36:19;;;;;;;3.88;1.30;;;;;;;8.57;82.75;100285.44;7393550;19;20529;-70
2023/12/29 09:38:50;;;;;;;2.42;1.35;;;;;;;8.61;81.84;100273.16;7393203;19;20007;-69
2023/12/29 09:41:20;;;;;;;2.78;1.65;;;;;;;8.63;81.74;100269.63;7393251;19;20480;-69
2023/12/29 09:43:51;;;;;;;2.78;1.50;;;;;;;8.66;81.16;100267.81;7391604;19;20100;-69
2023/12/29 09:46:20;;;;;;;3.33;1.40;;;;;;;8.69;80.81;100260.78;7393167;19;20490;-69
2023/12/29 09:48:49;;;;;;;4.18;1.40;;;;;;;8.72;80.35;100250.25;7392439;19;20026;-69
2023/12/29 09:51:22;;;;;;;4.07;1.25;;;;;;;8.77;81.51;100258.00;7393647;19;20022;-69
2023/12/29 09:53:54;;;;;;;3.60;1.38;;;;;;;8.76;80.80;100259.75;7393354;19;20014;-70
2023/12/29 09:56:22;;;;;;;5.25;1.27;;;;;;;8.83;82.49;100263.09;7394332;19;20491;-70
2023/12/29 09:58:53;;;;;;;2.80;1.10;;;;;;;8.88;82.85;100258.59;7395449;19;20015;-69
2023/12/29 10:01:23;;;;;;;4.03;1.33;;;;;;;8.91;81.95;100271.63;7400075;19;20014;-69
2023/12/29 10:03:52;;;;;;;3.00;1.10;;;;;;;8.94;82.21;100258.47;7398149;19;20423;-69
2023/12/29 10:06:26;;;;;;;2.22;1.30;;;;;;;8.96;80.18;100259.31;7400504;19;20033;-70
2023/12/29 10:08:59;;;;;;;4.38;1.60;;;;;;;8.99;79.83;100273.22;7400077;19;20024;-66
2023/12/29 10:11:30;;;;;;;2.17;1.60;;;;;;;9.01;81.09;100267.06;7400522;19;20027;-64
2023/12/29 10:14:02;;;;;;;3.53;1.48;;;;;;;9.06;82.34;100257.34;7398138;19;20053;-67
2023/12/29 10:16:38;;;;;;;7.45;1.95;;;;;;;9.12;81.55;100261.56;7397730;19;20017;-71
2023/12/29 10:19:13;;;;;;;4.65;1.25;;;;;;;9.14;81.42;100249.31;7400400;19;20023;-68
2023/12/29 10:21:50;;;;;;;6.20;1.48;;;;;;;9.16;80.27;100254.50;7401411;19;20018;-68
2023/12/29 10:24:24;;;;;;;2.25;0.95;;;;;;;9.19;81.04;100244.81;7397778;19;20015;-68
2023/12/29 10:26:54;;;;;;;2.60;1.10;;;;;;;9.20;81.29;100230.84;7399397;19;20078;-68
2023/12/29 10:29:23;;;;;;;2.38;1.10;;;;;;;9.21;80.70;100227.34;7397330;19;20010;-69
2023/12/29 10:31:52;;;;;;;5.35;1.15;;;;;;;9.24;80.32;100237.72;7397853;19;20036;-71
2023/12/29 10:34:22;;;;;;;3.78;1.13;;;;;;;9.28;81.41;100243.75;7399440;19;20011;-68
2023/12/29 10:36:51;;;;;;;2.35;1.20;;;;;;;9.32;82.08;100226.22;7401810;19;20010;-70
2023/12/29 10:39:22;;;;;;;3.47;1.10;;;;;;;9.35;79.99;100252.31;7399051;19;20007;-70
2023/12/29 10:41:51;;;;;;;3.95;1.20;;;;;;;9.38;80.75;100244.38;7399391;19;20083;-68
2023/12/29 10:44:19;;;;;;;3.88;1.38;;;;;;;9.40;79.75;100246.06;7396842;19;20358;-70
2023/12/29 10:46:48;;;;;;;2.05;1.00;;;;;;;9.47;81.82;100245.91;7399153;19;20090;-70
2023/12/29 10:49:16;;;;;;;3.03;1.30;;;;;;;9.51;81.57;100248.41;7398943;19;20024;-70
2023/12/29 10:51:45;;;;;;;3.42;1.02;;;;;;;9.59;82.36;100237.72;7398409;19;20014;-70
2023/12/29 10:54:25;;;;;;;2.13;1.38;;;;;;;9.67;79.34;100248.00;7396305;19;20038;-70
2023/12/29 10:57:04;;;;;;;5.68;1.35;;;;;;;9.74;79.43;100257.44;7399213;19;20041;-68
2023/12/29 10:59:32;;;;;;;4.32;1.48;;;;;;;9.85;80.53;100249.28;7398261;19;20011;-69
2023/12/29 11:02:03;;;;;;;2.80;1.20;;;;;;;9.92;80.68;100240.34;7398337;19;20481;-69
2023/12/29 11:04:30;;;;;;;2.80;1.45;;;;;;;10.00;80.99;100240.16;7395702;19;20477;-69
2023/12/29 11:06:58;;;;;;;4.05;1.42;;;;;;;10.04;79.89;100218.22;7398249;19;20010;-69
2023/12/29 11:09:34;;;;;;;3.88;1.20;;;;;;;10.09;77.75;100245.16;7397593;19;20086;-69
2023/12/29 11:12:05;;;;;;;3.20;1.25;;;;;;;10.12;79.23;100231.94;7398369;19;20017;-68
2023/12/29 11:14:35;;;;;;;2.85;1.15;;;;;;;10.16;78.69;100235.34;7395809;19;20360;-68
2023/12/29 11:17:04;;;;;;;3.47;1.15;;;;;;;10.16;78.61;100233.59;7397809;19;20066;-69
2023/12/29 11:19:32;;;;;;;2.95;1.20;;;;;;;10.21;80.06;100230.81;7398260;19;20014;-69
2023/12/29 11:22:02;;;;;;;2.78;1.60;;;;;;;10.24;79.67;100222.88;7397861;19;20024;-69
2023/12/29 11:24:33;;;;;;;4.03;1.05;;;;;;;10.27;77.32;100213.19;7395973;19;20019;-69
2023/12/29 11:27:02;;;;;;;6.80;1.58;;;;;;;10.31;78.10;100220.94;7395342;19;20011;-68
2023/12/29 11:29:30;;;;;;;3.25;1.63;;;;;;;10.33;78.04;100219.13;7397377;19;20027;-69
2023/12/29 11:32:01;;;;;;;4.57;1.67;;;;;;;10.34;78.56;100205.13;7396259;19;20015;-70
2023/12/29 11:34:37;;;;;;;2.67;1.73;;;;;;;10.37;77.68;100212.94;7396954;19;20463;-69
2023/12/29 11:37:15;;;;;;;4.38;2.00;;;;;;;10.37;76.11;100199.81;7397332;19;20418;-69
2023/12/29 11:39:55;;;;;;;3.28;1.35;;;;;;;10.37;74.77;100205.91;7397480;19;20041;-68
2023/12/29 11:42:31;;;;;;;3.35;1.55;;;;;;;10.39;76.46;100195.41;7396780;19;20007;-69
2023/12/29 11:44:59;;;;;;;4.22;1.77;;;;;;;10.41;77.63;100204.06;7395065;19;20029;-69